sensor_id;sensor_type;location;lat;lon;timestamp;P1;durP1;ratioP1;P2;durP2;ratioP2
4232;SDS011;2130;48.472;11.934;2022-09-03T00:02:08;66.10;;;5.37;;
4232;SDS011;2130;48.472;11.934;2022-09-03T00:04:41;69.70;;;5.67;;
4232;SDS011;2130;48.472;11.934;2022-09-03T00:07:17;65.60;;;5.43;;
4232;SDS011;2130;48.472;11.934;2022-09-03T00:09:53;68.53;;;5.90;;
4232;SDS011;2130;48.472;11.934;2022-09-03T00:12:25;67.93;;;5.60;;
4232;SDS011;2130;48.472;11.934;2022-09-03T00:14:56;66.40;;;5.60;;
4232;SDS011;2130;48.472;11.934;2022-09-03T00:17:29;68.57;;;5.80;;
4232;SDS011;2130;48.472;11.934;2022-09-03T00:20:01;67.17;;;5.80;;
4232;SDS011;2130;48.472;11.934;2022-09-03T00:22:31;65.90;;;5.73;;
4232;SDS011;2130;48.472;11.934;2022-09-03T00:25:03;66.87;;;6.00;;
4232;SDS011;2130;48.472;11.934;2022-09-03T00:27:35;66.67;;;5.20;;
4232;SDS011;2130;48.472;11.934;2022-09-03T00:30:07;66.40;;;5.37;;
4232;SDS011;2130;48.472;11.934;2022-09-03T00:32:42;66.57;;;5.57;;
4232;SDS011;2130;48.472;11.934;2022-09-03T00:35:14;66.47;;;6.10;;
4232;SDS011;2130;48.472;11.934;2022-09-03T00:37:47;66.30;;;5.23;;
4232;SDS011;2130;48.472;11.934;2022-09-03T00:40:19;66.67;;;5.80;;
4232;SDS011;2130;48.472;11.934;2022-09-03T00:42:59;67.40;;;5.50;;
4232;SDS011;2130;48.472;11.934;2022-09-03T00:45:33;67.13;;;5.83;;
4232;SDS011;2130;48.472;11.934;2022-09-03T00:48:10;65.53;;;5.20;;
4232;SDS011;2130;48.472;11.934;2022-09-03T00:50:51;66.80;;;6.07;;
4232;SDS011;2130;48.472;11.934;2022-09-03T00:53:27;65.70;;;5.50;;
4232;SDS011;2130;48.472;11.934;2022-09-03T00:56:02;66.80;;;5.97;;
4232;SDS011;2130;48.472;11.934;2022-09-03T00:58:48;65.90;;;5.70;;
4232;SDS011;2130;48.472;11.934;2022-09-03T01:01:24;65.90;;;5.10;;
4232;SDS011;2130;48.472;11.934;2022-09-03T01:03:59;68.00;;;6.00;;
4232;SDS011;2130;48.472;11.934;2022-09-03T01:06:35;67.60;;;5.77;;
4232;SDS011;2130;48.472;11.934;2022-09-03T01:09:13;66.97;;;5.57;;
4232;SDS011;2130;48.472;11.934;2022-09-03T01:11:52;68.23;;;6.10;;
4232;SDS011;2130;48.472;11.934;2022-09-03T01:14:30;68.20;;;5.43;;
4232;SDS011;2130;48.472;11.934;2022-09-03T01:17:05;72.03;;;5.70;;
4232;SDS011;2130;48.472;11.934;2022-09-03T01:19:53;65.87;;;5.60;;
4232;SDS011;2130;48.472;11.934;2022-09-03T01:25:48;70.03;;;5.60;;
4232;SDS011;2130;48.472;11.934;2022-09-03T01:28:28;65.80;;;5.10;;
4232;SDS011;2130;48.472;11.934;2022-09-03T01:31:07;66.10;;;5.80;;
4232;SDS011;2130;48.472;11.934;2022-09-03T01:33:43;66.37;;;5.80;;
4232;SDS011;2130;48.472;11.934;2022-09-03T01:36:18;70.73;;;5.37;;
4232;SDS011;2130;48.472;11.934;2022-09-03T01:38:54;66.60;;;5.30;;
4232;SDS011;2130;48.472;11.934;2022-09-03T01:41:26;65.43;;;5.23;;
4232;SDS011;2130;48.472;11.934;2022-09-03T01:44:25;65.77;;;5.40;;
4232;SDS011;2130;48.472;11.934;2022-09-03T01:46:59;66.20;;;5.87;;
4232;SDS011;2130;48.472;11.934;2022-09-03T01:49:39;69.23;;;5.17;;
4232;SDS011;2130;48.472;11.934;2022-09-03T01:52:11;66.90;;;5.60;;
4232;SDS011;2130;48.472;11.934;2022-09-03T01:54:44;66.27;;;5.70;;
4232;SDS011;2130;48.472;11.934;2022-09-03T01:57:23;67.43;;;5.80;;
4232;SDS011;2130;48.472;11.934;2022-09-03T02:00:06;68.10;;;5.77;;
4232;SDS011;2130;48.472;11.934;2022-09-03T02:02:37;69.97;;;6.00;;
4232;SDS011;2130;48.472;11.934;2022-09-03T02:05:07;66.47;;;6.23;;
4232;SDS011;2130;48.472;11.934;2022-09-03T02:07:38;66.30;;;5.73;;
4232;SDS011;2130;48.472;11.934;2022-09-03T02:10:09;65.83;;;5.80;;
4232;SDS011;2130;48.472;11.934;2022-09-03T02:12:39;66.63;;;5.97;;
4232;SDS011;2130;48.472;11.934;2022-09-03T02:15:11;66.40;;;6.20;;
4232;SDS011;2130;48.472;11.934;2022-09-03T02:17:40;65.57;;;5.67;;
4232;SDS011;2130;48.472;11.934;2022-09-03T02:20:10;67.43;;;5.90;;
4232;SDS011;2130;48.472;11.934;2022-09-03T02:22:40;65.20;;;5.27;;
4232;SDS011;2130;48.472;11.934;2022-09-03T02:25:09;67.97;;;5.90;;
4232;SDS011;2130;48.472;11.934;2022-09-03T02:27:37;65.90;;;5.70;;
4232;SDS011;2130;48.472;11.934;2022-09-03T02:30:06;66.20;;;5.60;;
4232;SDS011;2130;48.472;11.934;2022-09-03T02:32:36;70.87;;;6.90;;
4232;SDS011;2130;48.472;11.934;2022-09-03T02:35:05;69.67;;;6.10;;
4232;SDS011;2130;48.472;11.934;2022-09-03T02:37:33;77.17;;;6.23;;
4232;SDS011;2130;48.472;11.934;2022-09-03T02:40:02;66.47;;;6.10;;
4232;SDS011;2130;48.472;11.934;2022-09-03T02:42:32;65.80;;;5.90;;
4232;SDS011;2130;48.472;11.934;2022-09-03T02:45:02;68.60;;;5.80;;
4232;SDS011;2130;48.472;11.934;2022-09-03T02:47:34;68.17;;;6.00;;
4232;SDS011;2130;48.472;11.934;2022-09-03T02:50:06;68.90;;;6.23;;
4232;SDS011;2130;48.472;11.934;2022-09-03T02:52:34;66.67;;;5.83;;
4232;SDS011;2130;48.472;11.934;2022-09-03T02:55:02;66.07;;;6.23;;
4232;SDS011;2130;48.472;11.934;2022-09-03T02:57:31;66.30;;;5.90;;
4232;SDS011;2130;48.472;11.934;2022-09-03T02:59:59;66.63;;;6.40;;
4232;SDS011;2130;48.472;11.934;2022-09-03T03:02:27;65.87;;;6.10;;
4232;SDS011;2130;48.472;11.934;2022-09-03T03:04:57;66.70;;;6.10;;
4232;SDS011;2130;48.472;11.934;2022-09-03T03:07:25;67.67;;;6.30;;
4232;SDS011;2130;48.472;11.934;2022-09-03T03:09:54;67.00;;;5.33;;
4232;SDS011;2130;48.472;11.934;2022-09-03T03:12:22;67.60;;;6.10;;
4232;SDS011;2130;48.472;11.934;2022-09-03T03:14:52;66.53;;;6.07;;
4232;SDS011;2130;48.472;11.934;2022-09-03T03:17:20;67.37;;;5.90;;
4232;SDS011;2130;48.472;11.934;2022-09-03T03:19:48;68.23;;;6.10;;
4232;SDS011;2130;48.472;11.934;2022-09-03T03:22:17;68.83;;;6.03;;
4232;SDS011;2130;48.472;11.934;2022-09-03T03:24:45;66.90;;;5.90;;
4232;SDS011;2130;48.472;11.934;2022-09-03T03:27:15;66.63;;;5.97;;
4232;SDS011;2130;48.472;11.934;2022-09-03T03:29:44;66.13;;;5.50;;
4232;SDS011;2130;48.472;11.934;2022-09-03T03:32:12;72.40;;;6.60;;
4232;SDS011;2130;48.472;11.934;2022-09-03T03:34:40;66.07;;;6.63;;
4232;SDS011;2130;48.472;11.934;2022-09-03T03:37:08;65.90;;;6.07;;
4232;SDS011;2130;48.472;11.934;2022-09-03T03:39:38;66.70;;;6.50;;
4232;SDS011;2130;48.472;11.934;2022-09-03T03:42:06;68.17;;;6.20;;
4232;SDS011;2130;48.472;11.934;2022-09-03T03:44:34;66.77;;;6.23;;
4232;SDS011;2130;48.472;11.934;2022-09-03T03:47:02;66.67;;;6.87;;
4232;SDS011;2130;48.472;11.934;2022-09-03T03:49:31;67.20;;;7.00;;
4232;SDS011;2130;48.472;11.934;2022-09-03T03:51:59;67.50;;;6.57;;
4232;SDS011;2130;48.472;11.934;2022-09-03T03:54:28;68.40;;;7.53;;
4232;SDS011;2130;48.472;11.934;2022-09-03T03:56:58;67.80;;;7.40;;
4232;SDS011;2130;48.472;11.934;2022-09-03T03:59:26;69.60;;;7.50;;
4232;SDS011;2130;48.472;11.934;2022-09-03T04:01:54;66.87;;;6.70;;
4232;SDS011;2130;48.472;11.934;2022-09-03T04:04:22;67.03;;;7.17;;
4232;SDS011;2130;48.472;11.934;2022-09-03T04:06:50;68.30;;;6.87;;
4232;SDS011;2130;48.472;11.934;2022-09-03T04:09:19;67.40;;;6.37;;
4232;SDS011;2130;48.472;11.934;2022-09-03T04:11:47;66.97;;;6.50;;
4232;SDS011;2130;48.472;11.934;2022-09-03T04:14:17;66.90;;;7.17;;
4232;SDS011;2130;48.472;11.934;2022-09-03T04:16:45;65.80;;;6.17;;
4232;SDS011;2130;48.472;11.934;2022-09-03T04:19:13;66.17;;;6.70;;
4232;SDS011;2130;48.472;11.934;2022-09-03T04:21:42;66.87;;;6.73;;
4232;SDS011;2130;48.472;11.934;2022-09-03T04:24:10;67.00;;;6.90;;
4232;SDS011;2130;48.472;11.934;2022-09-03T04:26:38;67.23;;;6.83;;
4232;SDS011;2130;48.472;11.934;2022-09-03T04:29:07;66.70;;;6.90;;
4232;SDS011;2130;48.472;11.934;2022-09-03T04:31:37;67.00;;;7.13;;
4232;SDS011;2130;48.472;11.934;2022-09-03T04:34:26;67.50;;;6.27;;
4232;SDS011;2130;48.472;11.934;2022-09-03T04:36:54;66.87;;;6.23;;
4232;SDS011;2130;48.472;11.934;2022-09-03T04:39:24;67.17;;;6.50;;
4232;SDS011;2130;48.472;11.934;2022-09-03T04:41:52;66.90;;;7.00;;
4232;SDS011;2130;48.472;11.934;2022-09-03T04:44:20;66.53;;;7.17;;
4232;SDS011;2130;48.472;11.934;2022-09-03T04:46:50;66.20;;;6.93;;
4232;SDS011;2130;48.472;11.934;2022-09-03T04:49:18;66.00;;;6.40;;
4232;SDS011;2130;48.472;11.934;2022-09-03T04:51:47;68.60;;;6.17;;
4232;SDS011;2130;48.472;11.934;2022-09-03T04:54:15;67.27;;;6.93;;
4232;SDS011;2130;48.472;11.934;2022-09-03T04:56:43;69.07;;;7.27;;
4232;SDS011;2130;48.472;11.934;2022-09-03T04:59:11;67.47;;;7.17;;
4232;SDS011;2130;48.472;11.934;2022-09-03T05:01:40;66.37;;;7.00;;
4232;SDS011;2130;48.472;11.934;2022-09-03T05:04:11;69.10;;;7.20;;
4232;SDS011;2130;48.472;11.934;2022-09-03T05:06:39;67.87;;;7.00;;
4232;SDS011;2130;48.472;11.934;2022-09-03T05:09:08;67.77;;;7.50;;
4232;SDS011;2130;48.472;11.934;2022-09-03T05:11:36;67.70;;;8.27;;
4232;SDS011;2130;48.472;11.934;2022-09-03T05:14:05;67.07;;;7.33;;
4232;SDS011;2130;48.472;11.934;2022-09-03T05:16:37;68.83;;;7.47;;
4232;SDS011;2130;48.472;11.934;2022-09-03T05:19:05;68.70;;;8.00;;
4232;SDS011;2130;48.472;11.934;2022-09-03T05:21:35;67.73;;;7.93;;
4232;SDS011;2130;48.472;11.934;2022-09-03T05:24:03;67.67;;;7.80;;
4232;SDS011;2130;48.472;11.934;2022-09-03T05:26:34;68.47;;;8.00;;
4232;SDS011;2130;48.472;11.934;2022-09-03T05:29:04;66.87;;;7.33;;
4232;SDS011;2130;48.472;11.934;2022-09-03T05:31:34;67.50;;;7.17;;
4232;SDS011;2130;48.472;11.934;2022-09-03T05:34:04;67.70;;;7.10;;
4232;SDS011;2130;48.472;11.934;2022-09-03T05:36:35;67.60;;;7.20;;
4232;SDS011;2130;48.472;11.934;2022-09-03T05:39:04;69.73;;;7.27;;
4232;SDS011;2130;48.472;11.934;2022-09-03T05:41:32;66.70;;;6.93;;
4232;SDS011;2130;48.472;11.934;2022-09-03T05:44:00;66.80;;;6.57;;
4232;SDS011;2130;48.472;11.934;2022-09-03T05:46:30;67.07;;;6.77;;
4232;SDS011;2130;48.472;11.934;2022-09-03T05:48:59;67.43;;;6.30;;
4232;SDS011;2130;48.472;11.934;2022-09-03T05:51:27;66.93;;;7.30;;
4232;SDS011;2130;48.472;11.934;2022-09-03T05:53:57;66.37;;;6.30;;
4232;SDS011;2130;48.472;11.934;2022-09-03T05:56:26;69.30;;;6.57;;
4232;SDS011;2130;48.472;11.934;2022-09-03T05:58:56;66.73;;;6.33;;
4232;SDS011;2130;48.472;11.934;2022-09-03T06:01:28;66.17;;;6.50;;
4232;SDS011;2130;48.472;11.934;2022-09-03T06:03:58;66.33;;;6.70;;
4232;SDS011;2130;48.472;11.934;2022-09-03T06:06:27;68.17;;;6.93;;
4232;SDS011;2130;48.472;11.934;2022-09-03T06:08:59;67.97;;;6.87;;
4232;SDS011;2130;48.472;11.934;2022-09-03T06:11:28;73.30;;;6.40;;
4232;SDS011;2130;48.472;11.934;2022-09-03T06:13:58;66.37;;;6.30;;
4232;SDS011;2130;48.472;11.934;2022-09-03T06:16:27;66.00;;;6.07;;
4232;SDS011;2130;48.472;11.934;2022-09-03T06:18:57;65.23;;;5.57;;
4232;SDS011;2130;48.472;11.934;2022-09-03T06:21:26;66.70;;;6.07;;
4232;SDS011;2130;48.472;11.934;2022-09-03T06:23:55;75.93;;;5.70;;
4232;SDS011;2130;48.472;11.934;2022-09-03T06:26:27;67.07;;;6.40;;
4232;SDS011;2130;48.472;11.934;2022-09-03T06:28:55;66.83;;;6.53;;
4232;SDS011;2130;48.472;11.934;2022-09-03T06:31:25;65.80;;;5.60;;
4232;SDS011;2130;48.472;11.934;2022-09-03T06:33:53;66.37;;;5.87;;
4232;SDS011;2130;48.472;11.934;2022-09-03T06:36:26;65.60;;;5.77;;
4232;SDS011;2130;48.472;11.934;2022-09-03T06:38:55;65.40;;;5.33;;
4232;SDS011;2130;48.472;11.934;2022-09-03T06:41:25;67.17;;;6.30;;
4232;SDS011;2130;48.472;11.934;2022-09-03T06:44:00;73.70;;;5.93;;
4232;SDS011;2130;48.472;11.934;2022-09-03T06:46:30;66.40;;;6.07;;
4232;SDS011;2130;48.472;11.934;2022-09-03T06:48:58;66.63;;;6.10;;
4232;SDS011;2130;48.472;11.934;2022-09-03T06:51:27;66.60;;;6.00;;
4232;SDS011;2130;48.472;11.934;2022-09-03T06:53:58;67.90;;;6.20;;
4232;SDS011;2130;48.472;11.934;2022-09-03T06:56:29;66.83;;;6.40;;
4232;SDS011;2130;48.472;11.934;2022-09-03T06:59:05;66.17;;;6.13;;
4232;SDS011;2130;48.472;11.934;2022-09-03T07:01:35;66.53;;;6.17;;
4232;SDS011;2130;48.472;11.934;2022-09-03T07:04:10;69.10;;;5.97;;
4232;SDS011;2130;48.472;11.934;2022-09-03T07:06:39;77.65;;;11.57;;
4232;SDS011;2130;48.472;11.934;2022-09-03T07:09:09;66.93;;;6.63;;
4232;SDS011;2130;48.472;11.934;2022-09-03T07:11:39;66.23;;;5.87;;
4232;SDS011;2130;48.472;11.934;2022-09-03T07:14:14;67.17;;;5.60;;
4232;SDS011;2130;48.472;11.934;2022-09-03T07:16:43;66.50;;;5.30;;
4232;SDS011;2130;48.472;11.934;2022-09-03T07:19:11;67.17;;;5.87;;
4232;SDS011;2130;48.472;11.934;2022-09-03T07:21:41;68.10;;;5.50;;
4232;SDS011;2130;48.472;11.934;2022-09-03T07:24:16;69.00;;;6.10;;
4232;SDS011;2130;48.472;11.934;2022-09-03T07:26:46;66.47;;;5.47;;
4232;SDS011;2130;48.472;11.934;2022-09-03T07:29:15;67.10;;;5.90;;
4232;SDS011;2130;48.472;11.934;2022-09-03T07:31:46;68.40;;;5.83;;
4232;SDS011;2130;48.472;11.934;2022-09-03T07:34:17;68.43;;;5.30;;
4232;SDS011;2130;48.472;11.934;2022-09-03T07:36:47;67.13;;;5.53;;
4232;SDS011;2130;48.472;11.934;2022-09-03T07:39:17;67.90;;;5.90;;
4232;SDS011;2130;48.472;11.934;2022-09-03T07:41:47;66.90;;;5.20;;
4232;SDS011;2130;48.472;11.934;2022-09-03T07:44:16;66.60;;;5.20;;
4232;SDS011;2130;48.472;11.934;2022-09-03T07:46:48;65.97;;;5.00;;
4232;SDS011;2130;48.472;11.934;2022-09-03T07:49:18;66.40;;;5.10;;
4232;SDS011;2130;48.472;11.934;2022-09-03T07:51:47;66.77;;;5.47;;
4232;SDS011;2130;48.472;11.934;2022-09-03T07:54:20;69.17;;;5.50;;
4232;SDS011;2130;48.472;11.934;2022-09-03T07:56:51;68.83;;;5.43;;
4232;SDS011;2130;48.472;11.934;2022-09-03T07:59:19;68.87;;;6.37;;
4232;SDS011;2130;48.472;11.934;2022-09-03T08:01:48;67.87;;;5.60;;
4232;SDS011;2130;48.472;11.934;2022-09-03T08:04:17;66.73;;;5.50;;
4232;SDS011;2130;48.472;11.934;2022-09-03T08:06:47;68.17;;;5.57;;
4232;SDS011;2130;48.472;11.934;2022-09-03T08:09:15;68.23;;;5.40;;
4232;SDS011;2130;48.472;11.934;2022-09-03T08:11:43;67.37;;;5.97;;
4232;SDS011;2130;48.472;11.934;2022-09-03T08:14:12;66.97;;;5.53;;
4232;SDS011;2130;48.472;11.934;2022-09-03T08:16:42;68.47;;;5.87;;
4232;SDS011;2130;48.472;11.934;2022-09-03T08:19:13;66.83;;;5.70;;
4232;SDS011;2130;48.472;11.934;2022-09-03T08:21:41;67.77;;;5.87;;
4232;SDS011;2130;48.472;11.934;2022-09-03T08:24:10;71.27;;;5.47;;
4232;SDS011;2130;48.472;11.934;2022-09-03T08:26:39;68.07;;;5.23;;
4232;SDS011;2130;48.472;11.934;2022-09-03T08:29:14;68.10;;;5.73;;
4232;SDS011;2130;48.472;11.934;2022-09-03T08:31:42;67.07;;;5.50;;
4232;SDS011;2130;48.472;11.934;2022-09-03T08:34:11;69.27;;;5.90;;
4232;SDS011;2130;48.472;11.934;2022-09-03T08:36:40;68.77;;;6.37;;
4232;SDS011;2130;48.472;11.934;2022-09-03T08:39:09;67.87;;;5.70;;
4232;SDS011;2130;48.472;11.934;2022-09-03T08:41:40;68.00;;;5.70;;
4232;SDS011;2130;48.472;11.934;2022-09-03T08:44:20;71.47;;;5.60;;
4232;SDS011;2130;48.472;11.934;2022-09-03T08:46:52;67.10;;;5.33;;
4232;SDS011;2130;48.472;11.934;2022-09-03T08:49:24;72.60;;;5.60;;
4232;SDS011;2130;48.472;11.934;2022-09-03T08:51:54;68.73;;;5.67;;
4232;SDS011;2130;48.472;11.934;2022-09-03T08:54:24;68.13;;;5.70;;
4232;SDS011;2130;48.472;11.934;2022-09-03T08:56:56;71.17;;;5.67;;
4232;SDS011;2130;48.472;11.934;2022-09-03T08:59:28;67.93;;;5.33;;
4232;SDS011;2130;48.472;11.934;2022-09-03T09:02:01;69.50;;;5.90;;
4232;SDS011;2130;48.472;11.934;2022-09-03T09:04:38;68.57;;;5.80;;
4232;SDS011;2130;48.472;11.934;2022-09-03T09:07:16;69.20;;;5.10;;
4232;SDS011;2130;48.472;11.934;2022-09-03T09:09:50;68.87;;;5.10;;
4232;SDS011;2130;48.472;11.934;2022-09-03T09:12:28;68.20;;;5.20;;
4232;SDS011;2130;48.472;11.934;2022-09-03T09:15:14;67.67;;;4.70;;
4232;SDS011;2130;48.472;11.934;2022-09-03T09:17:55;67.97;;;5.10;;
4232;SDS011;2130;48.472;11.934;2022-09-03T09:20:32;71.53;;;4.83;;
4232;SDS011;2130;48.472;11.934;2022-09-03T09:23:04;67.97;;;5.27;;
4232;SDS011;2130;48.472;11.934;2022-09-03T09:25:35;69.17;;;5.57;;
4232;SDS011;2130;48.472;11.934;2022-09-03T09:28:11;68.30;;;5.30;;
4232;SDS011;2130;48.472;11.934;2022-09-03T09:30:45;68.97;;;5.50;;
4232;SDS011;2130;48.472;11.934;2022-09-03T09:33:15;68.30;;;5.40;;
4232;SDS011;2130;48.472;11.934;2022-09-03T09:35:46;67.87;;;5.47;;
4232;SDS011;2130;48.472;11.934;2022-09-03T09:38:14;69.80;;;5.47;;
4232;SDS011;2130;48.472;11.934;2022-09-03T09:40:54;76.95;;;8.68;;
4232;SDS011;2130;48.472;11.934;2022-09-03T09:43:23;68.07;;;5.40;;
4232;SDS011;2130;48.472;11.934;2022-09-03T09:45:53;68.50;;;5.57;;
4232;SDS011;2130;48.472;11.934;2022-09-03T09:48:22;67.90;;;5.00;;
4232;SDS011;2130;48.472;11.934;2022-09-03T09:51:03;68.27;;;5.47;;
4232;SDS011;2130;48.472;11.934;2022-09-03T09:53:32;67.90;;;4.93;;
4232;SDS011;2130;48.472;11.934;2022-09-03T09:56:02;70.70;;;5.90;;
4232;SDS011;2130;48.472;11.934;2022-09-03T09:58:31;69.30;;;5.40;;
4232;SDS011;2130;48.472;11.934;2022-09-03T10:01:03;69.07;;;5.77;;
4232;SDS011;2130;48.472;11.934;2022-09-03T10:03:33;69.27;;;5.43;;
4232;SDS011;2130;48.472;11.934;2022-09-03T10:06:03;69.40;;;5.17;;
4232;SDS011;2130;48.472;11.934;2022-09-03T10:08:47;71.20;;;5.20;;
4232;SDS011;2130;48.472;11.934;2022-09-03T10:11:16;69.50;;;5.60;;
4232;SDS011;2130;48.472;11.934;2022-09-03T10:13:44;69.63;;;4.90;;
4232;SDS011;2130;48.472;11.934;2022-09-03T10:16:19;70.60;;;5.10;;
4232;SDS011;2130;48.472;11.934;2022-09-03T10:18:51;69.13;;;5.30;;
4232;SDS011;2130;48.472;11.934;2022-09-03T10:21:26;69.10;;;4.90;;
4232;SDS011;2130;48.472;11.934;2022-09-03T10:23:58;69.67;;;5.00;;
4232;SDS011;2130;48.472;11.934;2022-09-03T10:26:33;67.97;;;5.00;;
4232;SDS011;2130;48.472;11.934;2022-09-03T10:29:04;70.43;;;4.73;;
4232;SDS011;2130;48.472;11.934;2022-09-03T10:31:50;70.57;;;4.80;;
4232;SDS011;2130;48.472;11.934;2022-09-03T10:34:34;68.77;;;4.77;;
4232;SDS011;2130;48.472;11.934;2022-09-03T10:37:09;71.27;;;4.83;;
4232;SDS011;2130;48.472;11.934;2022-09-03T10:39:48;69.70;;;4.77;;
4232;SDS011;2130;48.472;11.934;2022-09-03T10:42:29;68.30;;;4.83;;
4232;SDS011;2130;48.472;11.934;2022-09-03T10:45:05;68.60;;;4.77;;
4232;SDS011;2130;48.472;11.934;2022-09-03T10:47:45;69.70;;;4.20;;
4232;SDS011;2130;48.472;11.934;2022-09-03T10:50:27;70.07;;;4.73;;
4232;SDS011;2130;48.472;11.934;2022-09-03T10:53:05;70.20;;;5.07;;
4232;SDS011;2130;48.472;11.934;2022-09-03T10:55:39;129.43;;;9.43;;
4232;SDS011;2130;48.472;11.934;2022-09-03T10:58:15;72.77;;;4.50;;
4232;SDS011;2130;48.472;11.934;2022-09-03T11:00:56;70.37;;;4.53;;
4232;SDS011;2130;48.472;11.934;2022-09-03T11:03:39;69.20;;;4.40;;
4232;SDS011;2130;48.472;11.934;2022-09-03T11:06:11;71.03;;;4.73;;
4232;SDS011;2130;48.472;11.934;2022-09-03T11:08:43;70.33;;;4.67;;
4232;SDS011;2130;48.472;11.934;2022-09-03T11:11:15;69.20;;;4.13;;
4232;SDS011;2130;48.472;11.934;2022-09-03T11:13:47;69.30;;;4.90;;
4232;SDS011;2130;48.472;11.934;2022-09-03T11:16:19;70.00;;;4.60;;
4232;SDS011;2130;48.472;11.934;2022-09-03T11:18:54;69.10;;;4.27;;
4232;SDS011;2130;48.472;11.934;2022-09-03T11:21:25;68.70;;;4.30;;
4232;SDS011;2130;48.472;11.934;2022-09-03T11:24:02;69.60;;;4.10;;
4232;SDS011;2130;48.472;11.934;2022-09-03T11:26:33;69.00;;;4.20;;
4232;SDS011;2130;48.472;11.934;2022-09-03T11:29:03;73.60;;;4.40;;
4232;SDS011;2130;48.472;11.934;2022-09-03T11:31:37;71.27;;;4.97;;
4232;SDS011;2130;48.472;11.934;2022-09-03T11:34:24;68.50;;;4.10;;
4232;SDS011;2130;48.472;11.934;2022-09-03T11:37:05;68.83;;;4.00;;
4232;SDS011;2130;48.472;11.934;2022-09-03T11:39:35;70.90;;;4.70;;
4232;SDS011;2130;48.472;11.934;2022-09-03T11:42:08;68.50;;;4.20;;
4232;SDS011;2130;48.472;11.934;2022-09-03T11:44:38;70.07;;;3.67;;
4232;SDS011;2130;48.472;11.934;2022-09-03T11:47:20;69.63;;;3.87;;
4232;SDS011;2130;48.472;11.934;2022-09-03T11:49:51;68.80;;;4.10;;
4232;SDS011;2130;48.472;11.934;2022-09-03T11:52:26;70.00;;;4.03;;
4232;SDS011;2130;48.472;11.934;2022-09-03T11:54:55;70.70;;;4.00;;
4232;SDS011;2130;48.472;11.934;2022-09-03T11:57:27;69.00;;;4.40;;
4232;SDS011;2130;48.472;11.934;2022-09-03T12:00:05;68.93;;;3.80;;
4232;SDS011;2130;48.472;11.934;2022-09-03T12:02:36;70.70;;;3.80;;
4232;SDS011;2130;48.472;11.934;2022-09-03T12:05:15;69.10;;;4.20;;
4232;SDS011;2130;48.472;11.934;2022-09-03T12:07:52;69.00;;;3.93;;
4232;SDS011;2130;48.472;11.934;2022-09-03T12:10:38;68.00;;;3.50;;
4232;SDS011;2130;48.472;11.934;2022-09-03T12:13:16;68.50;;;3.27;;
4232;SDS011;2130;48.472;11.934;2022-09-03T12:16:08;69.50;;;3.90;;
4232;SDS011;2130;48.472;11.934;2022-09-03T12:18:42;69.37;;;3.70;;
4232;SDS011;2130;48.472;11.934;2022-09-03T12:21:12;70.20;;;3.77;;
4232;SDS011;2130;48.472;11.934;2022-09-03T12:23:44;68.30;;;3.40;;
4232;SDS011;2130;48.472;11.934;2022-09-03T12:26:15;69.07;;;3.57;;
4232;SDS011;2130;48.472;11.934;2022-09-03T12:28:45;68.87;;;3.70;;
4232;SDS011;2130;48.472;11.934;2022-09-03T12:31:18;69.17;;;3.90;;
4232;SDS011;2130;48.472;11.934;2022-09-03T12:33:49;69.10;;;3.63;;
4232;SDS011;2130;48.472;11.934;2022-09-03T12:36:21;69.60;;;3.63;;
4232;SDS011;2130;48.472;11.934;2022-09-03T12:38:50;69.03;;;3.70;;
4232;SDS011;2130;48.472;11.934;2022-09-03T12:41:38;71.50;;;3.63;;
4232;SDS011;2130;48.472;11.934;2022-09-03T12:44:23;69.97;;;3.67;;
4232;SDS011;2130;48.472;11.934;2022-09-03T12:46:59;68.27;;;3.70;;
4232;SDS011;2130;48.472;11.934;2022-09-03T12:49:48;69.17;;;3.57;;
4232;SDS011;2130;48.472;11.934;2022-09-03T12:52:22;68.77;;;3.67;;
4232;SDS011;2130;48.472;11.934;2022-09-03T12:54:53;68.47;;;3.50;;
4232;SDS011;2130;48.472;11.934;2022-09-03T12:57:24;70.00;;;3.80;;
4232;SDS011;2130;48.472;11.934;2022-09-03T12:59:55;69.07;;;4.03;;
4232;SDS011;2130;48.472;11.934;2022-09-03T13:02:26;72.80;;;4.17;;
4232;SDS011;2130;48.472;11.934;2022-09-03T13:04:57;70.10;;;5.37;;
4232;SDS011;2130;48.472;11.934;2022-09-03T13:07:27;69.10;;;3.80;;
4232;SDS011;2130;48.472;11.934;2022-09-03T13:10:00;73.10;;;3.77;;
4232;SDS011;2130;48.472;11.934;2022-09-03T13:12:31;69.27;;;3.87;;
4232;SDS011;2130;48.472;11.934;2022-09-03T13:15:04;69.70;;;4.33;;
4232;SDS011;2130;48.472;11.934;2022-09-03T13:17:37;68.50;;;3.80;;
4232;SDS011;2130;48.472;11.934;2022-09-03T13:20:22;68.30;;;3.63;;
4232;SDS011;2130;48.472;11.934;2022-09-03T13:22:58;69.00;;;4.00;;
4232;SDS011;2130;48.472;11.934;2022-09-03T13:25:39;68.90;;;3.40;;
4232;SDS011;2130;48.472;11.934;2022-09-03T13:28:18;71.10;;;4.20;;
4232;SDS011;2130;48.472;11.934;2022-09-03T13:30:55;69.10;;;3.63;;
4232;SDS011;2130;48.472;11.934;2022-09-03T13:33:26;69.57;;;3.70;;
4232;SDS011;2130;48.472;11.934;2022-09-03T13:35:58;71.50;;;3.97;;
4232;SDS011;2130;48.472;11.934;2022-09-03T13:38:32;68.90;;;3.70;;
4232;SDS011;2130;48.472;11.934;2022-09-03T13:41:06;68.77;;;3.60;;
4232;SDS011;2130;48.472;11.934;2022-09-03T13:43:45;68.23;;;3.30;;
4232;SDS011;2130;48.472;11.934;2022-09-03T13:46:19;69.07;;;3.30;;
4232;SDS011;2130;48.472;11.934;2022-09-03T13:48:55;68.67;;;3.13;;
4232;SDS011;2130;48.472;11.934;2022-09-03T13:51:42;68.50;;;2.80;;
4232;SDS011;2130;48.472;11.934;2022-09-03T13:54:16;70.23;;;3.37;;
4232;SDS011;2130;48.472;11.934;2022-09-03T13:57:07;72.20;;;3.37;;
4232;SDS011;2130;48.472;11.934;2022-09-03T13:59:47;69.80;;;3.13;;
4232;SDS011;2130;48.472;11.934;2022-09-03T14:02:21;68.30;;;2.97;;
4232;SDS011;2130;48.472;11.934;2022-09-03T14:04:57;68.17;;;2.80;;
4232;SDS011;2130;48.472;11.934;2022-09-03T14:07:37;67.60;;;2.80;;
4232;SDS011;2130;48.472;11.934;2022-09-03T14:10:18;74.40;;;3.50;;
4232;SDS011;2130;48.472;11.934;2022-09-03T14:12:49;68.87;;;3.20;;
4232;SDS011;2130;48.472;11.934;2022-09-03T14:15:28;67.87;;;3.03;;
4232;SDS011;2130;48.472;11.934;2022-09-03T14:18:01;68.27;;;2.93;;
4232;SDS011;2130;48.472;11.934;2022-09-03T14:20:38;68.50;;;2.87;;
4232;SDS011;2130;48.472;11.934;2022-09-03T14:23:09;68.03;;;2.97;;
4232;SDS011;2130;48.472;11.934;2022-09-03T14:25:54;68.17;;;2.90;;
4232;SDS011;2130;48.472;11.934;2022-09-03T14:28:27;68.90;;;3.67;;
4232;SDS011;2130;48.472;11.934;2022-09-03T14:31:00;71.90;;;5.73;;
4232;SDS011;2130;48.472;11.934;2022-09-03T14:33:35;69.03;;;3.50;;
4232;SDS011;2130;48.472;11.934;2022-09-03T14:36:09;69.70;;;3.37;;
4232;SDS011;2130;48.472;11.934;2022-09-03T14:41:37;69.03;;;3.50;;
4232;SDS011;2130;48.472;11.934;2022-09-03T14:44:21;69.10;;;3.67;;
4232;SDS011;2130;48.472;11.934;2022-09-03T14:47:02;71.40;;;3.13;;
4232;SDS011;2130;48.472;11.934;2022-09-03T14:49:42;68.23;;;3.40;;
4232;SDS011;2130;48.472;11.934;2022-09-03T14:52:35;68.07;;;3.30;;
4232;SDS011;2130;48.472;11.934;2022-09-03T14:55:24;68.27;;;3.60;;
4232;SDS011;2130;48.472;11.934;2022-09-03T14:58:18;68.50;;;3.50;;
4232;SDS011;2130;48.472;11.934;2022-09-03T15:00:52;68.17;;;3.43;;
4232;SDS011;2130;48.472;11.934;2022-09-03T15:03:30;67.87;;;3.20;;
4232;SDS011;2130;48.472;11.934;2022-09-03T15:06:10;69.30;;;3.40;;
4232;SDS011;2130;48.472;11.934;2022-09-03T15:08:47;67.17;;;3.10;;
4232;SDS011;2130;48.472;11.934;2022-09-03T15:11:31;68.70;;;3.40;;
4232;SDS011;2130;48.472;11.934;2022-09-03T15:14:03;68.20;;;3.50;;
4232;SDS011;2130;48.472;11.934;2022-09-03T15:16:42;68.60;;;3.50;;
4232;SDS011;2130;48.472;11.934;2022-09-03T15:19:15;71.50;;;3.87;;
4232;SDS011;2130;48.472;11.934;2022-09-03T15:21:58;71.47;;;3.70;;
4232;SDS011;2130;48.472;11.934;2022-09-03T15:24:38;75.20;;;3.90;;
4232;SDS011;2130;48.472;11.934;2022-09-03T15:27:16;69.10;;;3.90;;
4232;SDS011;2130;48.472;11.934;2022-09-03T15:30:05;74.17;;;3.33;;